sensor_id;sensor_type;location;lat;lon;timestamp;pressure;altitude;pressure_sealevel;temperature;humidity
51829;BME280;37881;48.024;8.774;2023-04-04T00:00:17;94355.41;;;-1.59;89.59
51829;BME280;37881;48.024;8.774;2023-04-04T00:02:44;94350.06;;;-1.68;90.66
51829;BME280;37881;48.024;8.774;2023-04-04T00:05:11;94358.53;;;-1.78;90.49
51829;BME280;37881;48.024;8.774;2023-04-04T00:07:38;94350.94;;;-1.76;90.45
51829;BME280;37881;48.024;8.774;2023-04-04T00:10:05;94341.41;;;-1.73;90.68
51829;BME280;37881;48.024;8.774;2023-04-04T00:12:32;94349.22;;;-1.81;90.87
51829;BME280;37881;48.024;8.774;2023-04-04T00:14:59;94346.09;;;-1.91;90.55
51829;BME280;37881;48.024;8.774;2023-04-04T00:17:25;94338.31;;;-1.84;91.00
51829;BME280;37881;48.024;8.774;2023-04-04T00:19:52;94333.25;;;-1.86;90.95
51829;BME280;37881;48.024;8.774;2023-04-04T00:22:19;94334.38;;;-1.87;90.11
51829;BME280;37881;48.024;8.774;2023-04-04T00:24:45;94341.91;;;-2.01;91.19
51829;BME280;37881;48.024;8.774;2023-04-04T00:27:12;94331.16;;;-2.01;91.98
51829;BME280;37881;48.024;8.774;2023-04-04T00:29:39;94329.41;;;-2.06;91.56
51829;BME280;37881;48.024;8.774;2023-04-04T00:32:05;94335.94;;;-2.07;91.67
51829;BME280;37881;48.024;8.774;2023-04-04T00:34:32;94330.03;;;-2.00;91.69
51829;BME280;37881;48.024;8.774;2023-04-04T00:36:59;94324.66;;;-2.00;92.09
51829;BME280;37881;48.024;8.774;2023-04-04T00:39:26;94334.47;;;-2.04;91.47
51829;BME280;37881;48.024;8.774;2023-04-04T00:41:52;94334.34;;;-2.08;91.25
51829;BME280;37881;48.024;8.774;2023-04-04T00:44:19;94337.50;;;-2.06;91.49
51829;BME280;37881;48.024;8.774;2023-04-04T00:46:46;94332.00;;;-2.09;91.31
51829;BME280;37881;48.024;8.774;2023-04-04T00:49:13;94334.09;;;-2.24;92.14
51829;BME280;37881;48.024;8.774;2023-04-04T00:51:39;94323.50;;;-2.20;91.67
51829;BME280;37881;48.024;8.774;2023-04-04T00:54:06;94326.63;;;-2.18;91.23
51829;BME280;37881;48.024;8.774;2023-04-04T00:56:34;94325.00;;;-2.31;92.52
51829;BME280;37881;48.024;8.774;2023-04-04T00:59:03;94321.13;;;-2.22;94.65
51829;BME280;37881;48.024;8.774;2023-04-04T01:01:30;94326.31;;;-2.16;92.71
51829;BME280;37881;48.024;8.774;2023-04-04T01:03:58;94320.03;;;-2.21;92.40
51829;BME280;37881;48.024;8.774;2023-04-04T01:06:25;94323.69;;;-2.25;92.18
51829;BME280;37881;48.024;8.774;2023-04-04T01:08:53;94317.69;;;-2.31;92.88
51829;BME280;37881;48.024;8.774;2023-04-04T01:11:20;94309.66;;;-2.39;92.94
51829;BME280;37881;48.024;8.774;2023-04-04T01:13:47;94309.03;;;-2.36;91.08
51829;BME280;37881;48.024;8.774;2023-04-04T01:16:14;94312.09;;;-2.47;90.44
51829;BME280;37881;48.024;8.774;2023-04-04T01:18:42;94317.31;;;-2.50;90.40
51829;BME280;37881;48.024;8.774;2023-04-04T01:21:13;94309.88;;;-2.45;90.53
51829;BME280;37881;48.024;8.774;2023-04-04T01:24:03;94311.78;;;-2.54;90.29
51829;BME280;37881;48.024;8.774;2023-04-04T01:26:30;94311.03;;;-2.63;90.10
51829;BME280;37881;48.024;8.774;2023-04-04T01:28:57;94313.69;;;-2.54;89.73
51829;BME280;37881;48.024;8.774;2023-04-04T01:31:34;94297.75;;;-2.59;89.90
51829;BME280;37881;48.024;8.774;2023-04-04T01:34:15;94302.78;;;-2.58;89.75
51829;BME280;37881;48.024;8.774;2023-04-04T01:36:53;94301.88;;;-2.62;90.00
51829;BME280;37881;48.024;8.774;2023-04-04T01:41:56;94307.69;;;-2.60;89.57
51829;BME280;37881;48.024;8.774;2023-04-04T01:44:24;94295.41;;;-2.61;88.83
51829;BME280;37881;48.024;8.774;2023-04-04T01:46:52;94298.09;;;-2.61;91.26
51829;BME280;37881;48.024;8.774;2023-04-04T01:49:21;94298.56;;;-2.68;89.42
51829;BME280;37881;48.024;8.774;2023-04-04T01:51:50;94303.63;;;-2.66;89.13
51829;BME280;37881;48.024;8.774;2023-04-04T01:54:17;94303.81;;;-2.71;89.43
51829;BME280;37881;48.024;8.774;2023-04-04T01:56:48;94300.31;;;-2.72;88.73
51829;BME280;37881;48.024;8.774;2023-04-04T01:59:14;94300.66;;;-2.73;89.72
51829;BME280;37881;48.024;8.774;2023-04-04T02:01:41;94300.03;;;-2.79;89.40
51829;BME280;37881;48.024;8.774;2023-04-04T02:04:09;94298.97;;;-2.87;89.23
51829;BME280;37881;48.024;8.774;2023-04-04T02:06:38;94299.88;;;-2.83;89.25
51829;BME280;37881;48.024;8.774;2023-04-04T02:09:05;94294.56;;;-2.91;89.99
51829;BME280;37881;48.024;8.774;2023-04-04T02:11:32;94299.25;;;-2.88;90.11
51829;BME280;37881;48.024;8.774;2023-04-04T02:13:59;94303.88;;;-2.97;89.94
51829;BME280;37881;48.024;8.774;2023-04-04T02:16:26;94296.91;;;-2.90;90.17
51829;BME280;37881;48.024;8.774;2023-04-04T02:18:52;94301.69;;;-3.04;90.36
51829;BME280;37881;48.024;8.774;2023-04-04T02:21:19;94303.53;;;-2.96;90.37
51829;BME280;37881;48.024;8.774;2023-04-04T02:23:46;94304.84;;;-3.02;90.63
51829;BME280;37881;48.024;8.774;2023-04-04T02:26:13;94296.81;;;-3.11;91.06
51829;BME280;37881;48.024;8.774;2023-04-04T02:28:39;94293.19;;;-3.15;91.17
51829;BME280;37881;48.024;8.774;2023-04-04T02:31:06;94294.44;;;-3.04;90.98
51829;BME280;37881;48.024;8.774;2023-04-04T02:33:33;94290.66;;;-3.11;90.97
51829;BME280;37881;48.024;8.774;2023-04-04T02:35:59;94297.25;;;-3.00;90.90
51829;BME280;37881;48.024;8.774;2023-04-04T02:38:26;94292.69;;;-3.08;91.03
51829;BME280;37881;48.024;8.774;2023-04-04T02:40:53;94286.56;;;-3.17;92.89
51829;BME280;37881;48.024;8.774;2023-04-04T02:43:19;94286.56;;;-3.17;92.32
51829;BME280;37881;48.024;8.774;2023-04-04T02:45:47;94288.63;;;-3.23;92.04
51829;BME280;37881;48.024;8.774;2023-04-04T02:48:14;94283.56;;;-3.25;92.15
51829;BME280;37881;48.024;8.774;2023-04-04T02:50:41;94282.00;;;-3.26;93.43
51829;BME280;37881;48.024;8.774;2023-04-04T02:53:08;94283.09;;;-3.27;94.54
51829;BME280;37881;48.024;8.774;2023-04-04T02:55:35;94281.84;;;-3.29;95.09
51829;BME280;37881;48.024;8.774;2023-04-04T02:58:02;94272.53;;;-3.32;95.31
51829;BME280;37881;48.024;8.774;2023-04-04T03:00:29;94276.97;;;-3.36;95.95
51829;BME280;37881;48.024;8.774;2023-04-04T03:02:56;94270.97;;;-3.33;95.94
51829;BME280;37881;48.024;8.774;2023-04-04T03:05:24;94271.91;;;-3.37;96.47
51829;BME280;37881;48.024;8.774;2023-04-04T03:07:54;94273.00;;;-3.38;96.48
51829;BME280;37881;48.024;8.774;2023-04-04T03:10:26;94278.72;;;-3.49;97.43
51829;BME280;37881;48.024;8.774;2023-04-04T03:12:55;94271.44;;;-3.48;97.43
51829;BME280;37881;48.024;8.774;2023-04-04T03:15:23;94270.03;;;-3.46;98.06
51829;BME280;37881;48.024;8.774;2023-04-04T03:17:51;94265.28;;;-3.49;98.29
51829;BME280;37881;48.024;8.774;2023-04-04T03:20:18;94266.56;;;-3.55;99.56
51829;BME280;37881;48.024;8.774;2023-04-04T03:22:45;94267.81;;;-3.52;100.00
51829;BME280;37881;48.024;8.774;2023-04-04T03:25:12;94267.03;;;-3.53;100.00
51829;BME280;37881;48.024;8.774;2023-04-04T03:27:38;94265.13;;;-3.52;100.00
51829;BME280;37881;48.024;8.774;2023-04-04T03:30:07;94273.84;;;-3.55;100.00
51829;BME280;37881;48.024;8.774;2023-04-04T03:32:35;94270.06;;;-3.63;100.00
51829;BME280;37881;48.024;8.774;2023-04-04T03:35:02;94272.59;;;-3.58;100.00
51829;BME280;37881;48.024;8.774;2023-04-04T03:37:29;94273.84;;;-3.55;100.00
51829;BME280;37881;48.024;8.774;2023-04-04T03:39:56;94273.69;;;-3.68;100.00
51829;BME280;37881;48.024;8.774;2023-04-04T03:42:22;94259.00;;;-3.62;100.00
51829;BME280;37881;48.024;8.774;2023-04-04T03:44:49;94263.13;;;-3.64;100.00
51829;BME280;37881;48.024;8.774;2023-04-04T03:47:16;94262.00;;;-3.63;100.00
51829;BME280;37881;48.024;8.774;2023-04-04T03:49:42;94265.47;;;-3.71;100.00
51829;BME280;37881;48.024;8.774;2023-04-04T03:52:09;94262.66;;;-3.66;100.00
51829;BME280;37881;48.024;8.774;2023-04-04T03:54:36;94262.63;;;-3.75;100.00
51829;BME280;37881;48.024;8.774;2023-04-04T03:57:02;94262.97;;;-3.85;100.00
51829;BME280;37881;48.024;8.774;2023-04-04T03:59:29;94260.72;;;-3.74;100.00
51829;BME280;37881;48.024;8.774;2023-04-04T04:01:56;94261.69;;;-3.79;100.00
51829;BME280;37881;48.024;8.774;2023-04-04T04:04:22;94266.44;;;-3.76;100.00
51829;BME280;37881;48.024;8.774;2023-04-04T04:06:49;94270.38;;;-3.73;100.00
51829;BME280;37881;48.024;8.774;2023-04-04T04:09:16;94262.34;;;-3.82;100.00
51829;BME280;37881;48.024;8.774;2023-04-04T04:11:44;94266.09;;;-3.83;100.00
51829;BME280;37881;48.024;8.774;2023-04-04T04:14:11;94261.22;;;-3.81;100.00
51829;BME280;37881;48.024;8.774;2023-04-04T04:16:38;94267.22;;;-3.75;100.00
51829;BME280;37881;48.024;8.774;2023-04-04T04:19:05;94265.16;;;-3.78;100.00
51829;BME280;37881;48.024;8.774;2023-04-04T04:21:32;94265.50;;;-3.80;100.00
51829;BME280;37881;48.024;8.774;2023-04-04T04:23:59;94272.44;;;-3.88;100.00
51829;BME280;37881;48.024;8.774;2023-04-04T04:26:26;94264.69;;;-3.89;100.00
51829;BME280;37881;48.024;8.774;2023-04-04T04:28:52;94277.47;;;-3.86;100.00
51829;BME280;37881;48.024;8.774;2023-04-04T04:31:19;94260.59;;;-3.87;100.00
51829;BME280;37881;48.024;8.774;2023-04-04T04:33:46;94266.09;;;-3.83;100.00
51829;BME280;37881;48.024;8.774;2023-04-04T04:36:14;94264.69;;;-3.89;100.00
51829;BME280;37881;48.024;8.774;2023-04-04T04:38:41;94263.44;;;-3.92;100.00
51829;BME280;37881;48.024;8.774;2023-04-04T04:41:08;94268.94;;;-3.97;100.00
51829;BME280;37881;48.024;8.774;2023-04-04T04:43:35;94274.78;;;-4.04;100.00
51829;BME280;37881;48.024;8.774;2023-04-04T04:46:02;94276.22;;;-3.97;100.00
51829;BME280;37881;48.024;8.774;2023-04-04T04:48:29;94283.47;;;-3.89;100.00
51829;BME280;37881;48.024;8.774;2023-04-04T04:50:56;94277.31;;;-3.90;100.00
51829;BME280;37881;48.024;8.774;2023-04-04T04:53:22;94276.53;;;-3.90;100.00
51829;BME280;37881;48.024;8.774;2023-04-04T04:55:49;94282.69;;;-3.90;100.00
51829;BME280;37881;48.024;8.774;2023-04-04T04:58:17;94280.31;;;-3.91;100.00
51829;BME280;37881;48.024;8.774;2023-04-04T05:00:48;94283.78;;;-3.99;100.00
51829;BME280;37881;48.024;8.774;2023-04-04T05:03:14;94283.59;;;-3.94;100.00
51829;BME280;37881;48.024;8.774;2023-04-04T05:05:42;94284.25;;;-3.89;100.00
51829;BME280;37881;48.024;8.774;2023-04-04T05:08:09;94281.72;;;-3.94;100.00
51829;BME280;37881;48.024;8.774;2023-04-04T05:10:35;94277.63;;;-3.91;100.00
51829;BME280;37881;48.024;8.774;2023-04-04T05:13:02;94284.09;;;-3.84;100.00
51829;BME280;37881;48.024;8.774;2023-04-04T05:15:29;94283.78;;;-3.82;100.00
51829;BME280;37881;48.024;8.774;2023-04-04T05:17:56;94287.09;;;-3.85;100.00
51829;BME280;37881;48.024;8.774;2023-04-04T05:20:23;94289.94;;;-3.82;100.00
51829;BME280;37881;48.024;8.774;2023-04-04T05:22:50;94283.47;;;-3.72;100.00
51829;BME280;37881;48.024;8.774;2023-04-04T05:25:17;94287.91;;;-3.76;100.00
51829;BME280;37881;48.024;8.774;2023-04-04T05:27:47;94286.13;;;-3.81;100.00
51829;BME280;37881;48.024;8.774;2023-04-04T05:30:14;94284.88;;;-3.74;100.00
51829;BME280;37881;48.024;8.774;2023-04-04T05:32:44;94282.81;;;-3.69;100.00
51829;BME280;37881;48.024;8.774;2023-04-04T05:35:11;94284.72;;;-3.61;100.00
51829;BME280;37881;48.024;8.774;2023-04-04T05:37:39;94284.88;;;-3.66;100.00
51829;BME280;37881;48.024;8.774;2023-04-04T05:40:06;94280.16;;;-3.60;100.00
51829;BME280;37881;48.024;8.774;2023-04-04T05:42:34;94282.22;;;-3.66;100.00
51829;BME280;37881;48.024;8.774;2023-04-04T05:45:00;94291.50;;;-3.54;100.00
51829;BME280;37881;48.024;8.774;2023-04-04T05:47:27;94286.78;;;-3.57;100.00
51829;BME280;37881;48.024;8.774;2023-04-04T05:49:54;94286.13;;;-3.54;100.00
51829;BME280;37881;48.024;8.774;2023-04-04T05:52:21;94291.00;;;-3.39;100.00
51829;BME280;37881;48.024;8.774;2023-04-04T05:54:47;94294.94;;;-3.36;100.00
51829;BME280;37881;48.024;8.774;2023-04-04T05:57:14;94294.66;;;-3.44;100.00
51829;BME280;37881;48.024;8.774;2023-04-04T05:59:41;94294.63;;;-3.17;100.00
51829;BME280;37881;48.024;8.774;2023-04-04T06:02:08;94295.09;;;-3.15;100.00
51829;BME280;37881;48.024;8.774;2023-04-04T06:04:34;94295.72;;;-3.18;100.00
51829;BME280;37881;48.024;8.774;2023-04-04T06:07:01;94299.34;;;-3.23;100.00
51829;BME280;37881;48.024;8.774;2023-04-04T06:09:28;94298.88;;;-3.08;100.00
51829;BME280;37881;48.024;8.774;2023-04-04T06:11:55;94292.34;;;-2.89;100.00
51829;BME280;37881;48.024;8.774;2023-04-04T06:14:22;94293.69;;;-2.74;100.00
51829;BME280;37881;48.024;8.774;2023-04-04T06:16:49;94292.16;;;-2.84;100.00
51829;BME280;37881;48.024;8.774;2023-04-04T06:19:15;94302.41;;;-2.86;100.00
51829;BME280;37881;48.024;8.774;2023-04-04T06:21:42;94293.38;;;-2.73;100.00
51829;BME280;37881;48.024;8.774;2023-04-04T06:24:09;94308.03;;;-2.62;100.00
51829;BME280;37881;48.024;8.774;2023-04-04T06:26:35;94292.81;;;-2.49;100.00
51829;BME280;37881;48.024;8.774;2023-04-04T06:29:03;94288.31;;;-2.36;100.00
51829;BME280;37881;48.024;8.774;2023-04-04T06:31:31;94305.78;;;-2.51;100.00
51829;BME280;37881;48.024;8.774;2023-04-04T06:33:58;94291.75;;;-2.27;100.00
51829;BME280;37881;48.024;8.774;2023-04-04T06:36:26;94300.22;;;-2.16;98.91
51829;BME280;37881;48.024;8.774;2023-04-04T06:38:53;94297.22;;;-2.14;99.53
51829;BME280;37881;48.024;8.774;2023-04-04T06:41:20;94303.47;;;-2.31;100.00
51829;BME280;37881;48.024;8.774;2023-04-04T06:43:47;94312.38;;;-2.10;99.15
51829;BME280;37881;48.024;8.774;2023-04-04T06:46:14;94308.13;;;-2.11;99.24
51829;BME280;37881;48.024;8.774;2023-04-04T06:48:40;94303.75;;;-1.94;98.43
51829;BME280;37881;48.024;8.774;2023-04-04T06:51:08;94310.44;;;-1.79;97.21
51829;BME280;37881;48.024;8.774;2023-04-04T06:53:34;94294.03;;;-1.45;97.13
51829;BME280;37881;48.024;8.774;2023-04-04T06:56:02;94292.91;;;-1.23;94.03
51829;BME280;37881;48.024;8.774;2023-04-04T06:58:30;94302.69;;;0.02;88.80
51829;BME280;37881;48.024;8.774;2023-04-04T07:00:56;94290.34;;;4.64;66.22
51829;BME280;37881;48.024;8.774;2023-04-04T07:03:25;94287.75;;;5.80;56.51
51829;BME280;37881;48.024;8.774;2023-04-04T07:05:52;94282.56;;;8.24;47.64
51829;BME280;37881;48.024;8.774;2023-04-04T07:08:19;94290.59;;;6.43;48.31
51829;BME280;37881;48.024;8.774;2023-04-04T07:10:46;94279.03;;;8.45;45.67
51829;BME280;37881;48.024;8.774;2023-04-04T07:13:13;94280.72;;;9.37;43.31
51829;BME280;37881;48.024;8.774;2023-04-04T07:15:40;94284.50;;;11.38;37.72
51829;BME280;37881;48.024;8.774;2023-04-04T07:18:06;94286.44;;;11.72;35.86
51829;BME280;37881;48.024;8.774;2023-04-04T07:20:34;94285.69;;;11.07;36.75
51829;BME280;37881;48.024;8.774;2023-04-04T07:23:01;94272.69;;;13.57;33.58
51829;BME280;37881;48.024;8.774;2023-04-04T07:25:28;94284.16;;;10.64;34.77
51829;BME280;37881;48.024;8.774;2023-04-04T07:27:55;94278.88;;;9.90;35.40
51829;BME280;37881;48.024;8.774;2023-04-04T07:30:37;94272.25;;;12.05;34.06
51829;BME280;37881;48.024;8.774;2023-04-04T07:33:05;94285.56;;;11.48;31.60
51829;BME280;37881;48.024;8.774;2023-04-04T07:35:31;94274.66;;;11.10;32.41
51829;BME280;37881;48.024;8.774;2023-04-04T07:37:58;94273.56;;;8.34;37.60
51829;BME280;37881;48.024;8.774;2023-04-04T07:40:25;94276.03;;;10.05;33.37
51829;BME280;37881;48.024;8.774;2023-04-04T07:42:53;94266.75;;;12.05;33.17
51829;BME280;37881;48.024;8.774;2023-04-04T07:45:20;94260.91;;;14.26;29.39
51829;BME280;37881;48.024;8.774;2023-04-04T07:47:48;94262.09;;;14.74;27.88
51829;BME280;37881;48.024;8.774;2023-04-04T07:50:15;94275.91;;;11.36;31.43
51829;BME280;37881;48.024;8.774;2023-04-04T07:52:48;94269.72;;;14.21;28.42
51829;BME280;37881;48.024;8.774;2023-04-04T07:55:17;94264.03;;;15.78;26.80
51829;BME280;37881;48.024;8.774;2023-04-04T07:57:46;94267.66;;;15.33;26.36
51829;BME280;37881;48.024;8.774;2023-04-04T08:00:13;94281.38;;;13.36;26.90
51829;BME280;37881;48.024;8.774;2023-04-04T08:02:42;94297.94;;;7.01;33.28
51829;BME280;37881;48.024;8.774;2023-04-04T08:05:09;94305.13;;;8.99;33.51
51829;BME280;37881;48.024;8.774;2023-04-04T08:07:36;94274.84;;;5.70;36.64
51829;BME280;37881;48.024;8.774;2023-04-04T08:10:03;94266.53;;;9.53;33.70
51829;BME280;37881;48.024;8.774;2023-04-04T08:12:29;94271.13;;;10.72;30.16
51829;BME280;37881;48.024;8.774;2023-04-04T08:14:59;94277.81;;;7.45;34.57
51829;BME280;37881;48.024;8.774;2023-04-04T08:17:27;94282.56;;;8.56;34.69
51829;BME280;37881;48.024;8.774;2023-04-04T08:19:54;94275.53;;;11.96;29.59
51829;BME280;37881;48.024;8.774;2023-04-04T08:22:20;94277.47;;;8.54;32.96
51829;BME280;37881;48.024;8.774;2023-04-04T08:24:47;94284.09;;;7.74;34.76
51829;BME280;37881;48.024;8.774;2023-04-04T08:27:14;94274.19;;;12.78;29.60
51829;BME280;37881;48.024;8.774;2023-04-04T08:29:41;94282.34;;;5.43;35.09
51829;BME280;37881;48.024;8.774;2023-04-04T08:32:08;94279.44;;;10.16;30.35
51829;BME280;37881;48.024;8.774;2023-04-04T08:34:35;94270.91;;;11.58;29.67
51829;BME280;37881;48.024;8.774;2023-04-04T08:37:02;94277.72;;;11.16;29.09
51829;BME280;37881;48.024;8.774;2023-04-04T08:39:28;94272.81;;;11.00;30.02
51829;BME280;37881;48.024;8.774;2023-04-04T08:42:03;94272.56;;;10.87;30.15
51829;BME280;37881;48.024;8.774;2023-04-04T08:44:32;94264.31;;;14.96;25.54
51829;BME280;37881;48.024;8.774;2023-04-04T08:47:04;94272.69;;;13.57;26.68
51829;BME280;37881;48.024;8.774;2023-04-04T08:49:34;94272.63;;;10.80;28.08
51829;BME280;37881;48.024;8.774;2023-04-04T08:52:03;94282.59;;;10.14;31.16
51829;BME280;37881;48.024;8.774;2023-04-04T08:54:33;94275.75;;;9.88;30.86
51829;BME280;37881;48.024;8.774;2023-04-04T08:57:04;94263.38;;;14.04;27.04
51829;BME280;37881;48.024;8.774;2023-04-04T08:59:32;94271.25;;;10.61;28.28
51829;BME280;37881;48.024;8.774;2023-04-04T09:04:57;94287.03;;;10.50;29.60
51829;BME280;37881;48.024;8.774;2023-04-04T09:07:36;94279.84;;;7.95;32.22
51829;BME280;37881;48.024;8.774;2023-04-04T09:10:08;94276.22;;;11.42;29.77
51829;BME280;37881;48.024;8.774;2023-04-04T09:12:43;94287.63;;;8.65;30.87
51829;BME280;37881;48.024;8.774;2023-04-04T09:15:11;94293.84;;;7.65;32.82
51829;BME280;37881;48.024;8.774;2023-04-04T09:17:37;94292.84;;;5.85;34.75
51829;BME280;37881;48.024;8.774;2023-04-04T09:23:12;94274.50;;;12.37;28.64
51829;BME280;37881;48.024;8.774;2023-04-04T09:25:52;94263.50;;;14.17;26.04
51829;BME280;37881;48.024;8.774;2023-04-04T09:28:22;94279.13;;;6.82;33.15
51829;BME280;37881;48.024;8.774;2023-04-04T09:30:50;94273.16;;;9.59;30.37
51829;BME280;37881;48.024;8.774;2023-04-04T09:33:19;94274.56;;;9.15;30.62
51829;BME280;37881;48.024;8.774;2023-04-04T09:36:05;94277.81;;;8.82;31.78
51829;BME280;37881;48.024;8.774;2023-04-04T09:38:36;94274.25;;;11.73;27.64
51829;BME280;37881;48.024;8.774;2023-04-04T09:41:06;94277.53;;;10.13;30.11
51829;BME280;37881;48.024;8.774;2023-04-04T09:43:35;94289.22;;;8.15;31.56
51829;BME280;37881;48.024;8.774;2023-04-04T09:46:02;94275.84;;;10.71;29.55
51829;BME280;37881;48.024;8.774;2023-04-04T09:48:32;94283.97;;;12.36;27.49
51829;BME280;37881;48.024;8.774;2023-04-04T09:51:01;94274.72;;;11.68;28.49
51829;BME280;37881;48.024;8.774;2023-04-04T09:53:29;94279.78;;;11.08;29.34
51829;BME280;37881;48.024;8.774;2023-04-04T09:55:56;94270.97;;;13.24;26.08
51829;BME280;37881;48.024;8.774;2023-04-04T09:58:25;94288.00;;;10.25;29.53
51829;BME280;37881;48.024;8.774;2023-04-04T10:00:55;94300.91;;;6.15;33.96
51829;BME280;37881;48.024;8.774;2023-04-04T10:03:23;94289.59;;;10.68;29.12
51829;BME280;37881;48.024;8.774;2023-04-04T10:06:02;94284.25;;;11.29;28.81
51829;BME280;37881;48.024;8.774;2023-04-04T10:08:33;94285.94;;;11.50;28.24
51829;BME280;37881;48.024;8.774;2023-04-04T10:11:04;94286.75;;;9.81;30.18
51829;BME280;37881;48.024;8.774;2023-04-04T10:13:34;94297.41;;;8.55;31.14
51829;BME280;37881;48.024;8.774;2023-04-04T10:16:03;94269.13;;;11.75;28.64
51829;BME280;37881;48.024;8.774;2023-04-04T10:18:32;94285.53;;;10.42;29.75
51829;BME280;37881;48.024;8.774;2023-04-04T10:21:02;94294.31;;;6.79;34.26
51829;BME280;37881;48.024;8.774;2023-04-04T10:23:46;94287.66;;;8.57;32.60
51829;BME280;37881;48.024;8.774;2023-04-04T10:26:14;94280.50;;;11.77;28.61
51829;BME280;37881;48.024;8.774;2023-04-04T10:28:41;94278.66;;;9.59;31.98
51829;BME280;37881;48.024;8.774;2023-04-04T10:36:45;94284.22;;;10.08;30.73
51829;BME280;37881;48.024;8.774;2023-04-04T10:42:18;94286.84;;;8.71;30.53
51829;BME280;37881;48.024;8.774;2023-04-04T10:44:45;94293.47;;;10.29;30.55
51829;BME280;37881;48.024;8.774;2023-04-04T10:47:22;94293.94;;;11.07;29.48
51829;BME280;37881;48.024;8.774;2023-04-04T10:49:50;94298.22;;;11.73;27.89
51829;BME280;37881;48.024;8.774;2023-04-04T10:52:18;94290.38;;;8.04;34.06
51829;BME280;37881;48.024;8.774;2023-04-04T10:54:46;94294.41;;;9.37;31.21
51829;BME280;37881;48.024;8.774;2023-04-04T10:57:16;94297.50;;;6.88;33.76
51829;BME280;37881;48.024;8.774;2023-04-04T11:00:02;94296.53;;;7.54;34.32
51829;BME280;37881;48.024;8.774;2023-04-04T11:05:26;94281.09;;;9.43;32.53
51829;BME280;37881;48.024;8.774;2023-04-04T11:07:56;94270.66;;;9.16;31.78
51829;BME280;37881;48.024;8.774;2023-04-04T11:10:35;94275.94;;;8.21;32.42
51829;BME280;37881;48.024;8.774;2023-04-04T11:13:14;94293.06;;;6.07;35.21
51829;BME280;37881;48.024;8.774;2023-04-04T11:15:50;94264.94;;;9.59;32.19
51829;BME280;37881;48.024;8.774;2023-04-04T11:18:19;94267.09;;;12.34;28.23
51829;BME280;37881;48.024;8.774;2023-04-04T11:21:02;94278.66;;;8.21;31.72
51829;BME280;37881;48.024;8.774;2023-04-04T11:29:04;94281.53;;;5.38;38.35
51829;BME280;37881;48.024;8.774;2023-04-04T11:31:38;94282.41;;;5.12;38.54
51829;BME280;37881;48.024;8.774;2023-04-04T11:34:10;94274.66;;;6.52;37.12
51829;BME280;37881;48.024;8.774;2023-04-04T11:41:52;94266.41;;;5.45;38.92
51829;BME280;37881;48.024;8.774;2023-04-04T11:44:20;94265.88;;;5.28;38.95
51829;BME280;37881;48.024;8.774;2023-04-04T11:46:55;94256.97;;;5.35;37.84
51829;BME280;37881;48.024;8.774;2023-04-04T11:49:27;94274.16;;;4.71;38.82
51829;BME280;37881;48.024;8.774;2023-04-04T11:51:56;94269.38;;;4.34;40.36
51829;BME280;37881;48.024;8.774;2023-04-04T11:54:23;94266.16;;;4.86;38.99
51829;BME280;37881;48.024;8.774;2023-04-04T11:56:50;94262.34;;;4.90;40.64
51829;BME280;37881;48.024;8.774;2023-04-04T11:59:18;94259.31;;;4.65;40.74
51829;BME280;37881;48.024;8.774;2023-04-04T12:01:45;94257.25;;;5.23;40.32
51829;BME280;37881;48.024;8.774;2023-04-04T12:04:16;94259.66;;;5.28;39.13
51829;BME280;37881;48.024;8.774;2023-04-04T12:06:46;94255.38;;;3.79;40.85
51829;BME280;37881;48.024;8.774;2023-04-04T12:09:13;94256.72;;;4.76;40.42
51829;BME280;37881;48.024;8.774;2023-04-04T12:11:43;94252.06;;;5.10;40.41
51829;BME280;37881;48.024;8.774;2023-04-04T12:14:20;94249.09;;;5.23;40.89
51829;BME280;37881;48.024;8.774;2023-04-04T12:16:49;94246.63;;;4.76;41.43
51829;BME280;37881;48.024;8.774;2023-04-04T12:19:17;94245.88;;;5.51;39.26
51829;BME280;37881;48.024;8.774;2023-04-04T12:21:47;94253.25;;;5.09;40.61
51829;BME280;37881;48.024;8.774;2023-04-04T12:24:15;94243.78;;;5.33;40.62
51829;BME280;37881;48.024;8.774;2023-04-04T12:26:45;94244.19;;;5.39;38.73
51829;BME280;37881;48.024;8.774;2023-04-04T12:29:14;94251.84;;;5.26;40.43
51829;BME280;37881;48.024;8.774;2023-04-04T12:31:43;94245.28;;;4.93;41.57
51829;BME280;37881;48.024;8.774;2023-04-04T12:34:21;94232.78;;;5.64;41.06
51829;BME280;37881;48.024;8.774;2023-04-04T12:36:49;94235.31;;;5.90;39.75
51829;BME280;37881;48.024;8.774;2023-04-04T12:39:19;94246.03;;;5.69;41.02
51829;BME280;37881;48.024;8.774;2023-04-04T12:42:02;94239.03;;;4.89;42.00
51829;BME280;37881;48.024;8.774;2023-04-04T12:44:30;94232.63;;;5.49;40.58
51829;BME280;37881;48.024;8.774;2023-04-04T12:47:08;94243.78;;;6.26;39.26
51829;BME280;37881;48.024;8.774;2023-04-04T12:49:41;94236.06;;;5.87;39.98
51829;BME280;37881;48.024;8.774;2023-04-04T12:52:19;94237.13;;;4.93;42.26
51829;BME280;37881;48.024;8.774;2023-04-04T12:54:48;94246.88;;;4.34;42.55
51829;BME280;37881;48.024;8.774;2023-04-04T12:57:32;94236.31;;;4.89;41.70
51829;BME280;37881;48.024;8.774;2023-04-04T13:00:00;94240.94;;;4.89;41.44
51829;BME280;37881;48.024;8.774;2023-04-04T13:02:27;94236.75;;;5.32;40.43
51829;BME280;37881;48.024;8.774;2023-04-04T13:04:57;94237.00;;;5.61;40.75
51829;BME280;37881;48.024;8.774;2023-04-04T13:07:28;94234.59;;;5.11;42.50
51829;BME280;37881;48.024;8.774;2023-04-04T13:09:59;94233.75;;;5.04;40.86
51829;BME280;37881;48.024;8.774;2023-04-04T13:12:57;94235.69;;;5.03;41.79
51829;BME280;37881;48.024;8.774;2023-04-04T13:15:47;94234.06;;;4.98;42.95
51829;BME280;37881;48.024;8.774;2023-04-04T13:18:20;94234.56;;;5.08;41.63
51829;BME280;37881;48.024;8.774;2023-04-04T13:20:48;94237.00;;;5.57;38.34
51829;BME280;37881;48.024;8.774;2023-04-04T13:23:16;94239.19;;;5.89;36.57
51829;BME280;37881;48.024;8.774;2023-04-04T13:25:43;94234.34;;;5.24;38.38
51829;BME280;37881;48.024;8.774;2023-04-04T13:28:09;94227.56;;;4.73;40.57
51829;BME280;37881;48.024;8.774;2023-04-04T13:30:39;94225.69;;;5.14;39.25
51829;BME280;37881;48.024;8.774;2023-04-04T13:33:12;94226.91;;;4.83;39.78
51829;BME280;37881;48.024;8.774;2023-04-04T13:35:42;94227.94;;;5.09;40.71
51829;BME280;37881;48.024;8.774;2023-04-04T13:38:10;94217.44;;;4.39;40.99